createdAt,value
2018-11-12T00:01:48.391Z,70.50
2018-11-12T00:04:16.360Z,70.50
2018-11-12T00:06:44.140Z,70.50
2018-11-12T00:09:11.741Z,70.50
2018-11-12T00:11:39.354Z,70.40
2018-11-12T00:14:08.391Z,70.30
2018-11-12T00:16:35.955Z,70.50
2018-11-12T00:19:03.667Z,70.60
2018-11-12T00:21:31.324Z,70.10
2018-11-12T00:23:58.990Z,69.90
2018-11-12T00:26:26.651Z,69.50
2018-11-12T00:28:54.260Z,69.70
2018-11-12T00:31:21.853Z,70.00
2018-11-12T00:33:49.550Z,70.00
2018-11-12T00:36:17.202Z,69.00
2018-11-12T00:38:44.763Z,69.00
2018-11-12T00:41:12.374Z,68.70
2018-11-12T00:43:40.046Z,68.60
2018-11-12T00:46:07.665Z,68.90
2018-11-12T00:48:35.211Z,68.50
2018-11-12T00:51:02.771Z,68.20
2018-11-12T00:53:30.458Z,68.10
2018-11-12T00:55:58.049Z,68.50
2018-11-12T00:58:25.624Z,68.80
2018-11-12T01:00:53.206Z,69.10
2018-11-12T01:03:20.794Z,69.50
2018-11-12T01:05:48.377Z,69.70
2018-11-12T01:08:15.982Z,69.80
2018-11-12T01:10:43.550Z,69.90
2018-11-12T01:13:11.130Z,70.10
2018-11-12T01:15:38.717Z,70.30
2018-11-12T01:18:06.292Z,70.10
2018-11-12T01:20:33.900Z,70.10
2018-11-12T01:23:01.533Z,70.60
2018-11-12T01:25:29.152Z,70.90
2018-11-12T01:27:56.719Z,70.90
2018-11-12T01:30:24.278Z,71.40
2018-11-12T01:32:51.854Z,70.60
2018-11-12T01:35:19.393Z,70.70
2018-11-12T01:37:47.024Z,70.70
2018-11-12T01:40:15.208Z,70.70
2018-11-12T01:42:43.162Z,70.80
2018-11-12T01:45:14.570Z,70.70
2018-11-12T01:47:43.234Z,70.80
2018-11-12T01:50:11.682Z,70.90
2018-11-12T01:52:39.483Z,71.20
2018-11-12T01:55:08.157Z,71.30
2018-11-12T01:57:35.737Z,71.30
2018-11-12T02:00:03.721Z,71.30
2018-11-12T02:02:31.289Z,71.60
2018-11-12T02:04:58.929Z,71.70
2018-11-12T02:07:26.460Z,70.60
2018-11-12T02:09:54.027Z,69.00
2018-11-12T02:12:21.603Z,69.10
2018-11-12T02:14:49.180Z,69.80
2018-11-12T02:17:16.764Z,69.60
2018-11-12T02:19:44.487Z,69.70
2018-11-12T02:22:12.178Z,69.60
2018-11-12T02:24:39.819Z,69.70
2018-11-12T02:27:07.377Z,69.60
2018-11-12T02:29:34.982Z,70.10
2018-11-12T02:32:02.699Z,70.70
2018-11-12T02:34:30.257Z,71.00
2018-11-12T02:36:57.855Z,71.30
2018-11-12T02:39:25.414Z,71.50
2018-11-12T02:41:53.014Z,71.80
2018-11-12T02:44:20.598Z,72.00
2018-11-12T02:46:48.147Z,72.30
2018-11-12T02:49:15.818Z,72.00
2018-11-12T02:51:43.935Z,71.60
2018-11-12T02:54:11.493Z,71.90
2018-11-12T02:56:39.123Z,71.10
2018-11-12T02:59:06.705Z,71.10
2018-11-12T03:01:34.295Z,71.00
2018-11-12T03:04:01.882Z,71.10
2018-11-12T03:06:30.037Z,71.00
2018-11-12T03:08:57.664Z,70.80
2018-11-12T03:11:25.393Z,70.60
2018-11-12T03:13:53.041Z,70.20
2018-11-12T03:16:20.602Z,70.10
2018-11-12T03:18:48.284Z,70.00
2018-11-12T03:21:15.936Z,69.80
2018-11-12T03:23:43.558Z,69.40
2018-11-12T03:26:11.319Z,69.00
2018-11-12T03:28:38.901Z,68.90
2018-11-12T03:31:06.517Z,69.20
2018-11-12T03:33:34.176Z,68.80
2018-11-12T03:36:01.785Z,68.60
2018-11-12T03:38:29.342Z,68.60
2018-11-12T03:40:57.148Z,68.20
2018-11-12T03:43:24.794Z,68.40
2018-11-12T03:45:52.375Z,67.70
2018-11-12T03:48:20.036Z,67.70
2018-11-12T03:50:47.563Z,66.20
2018-11-12T03:53:15.170Z,66.10
2018-11-12T03:55:42.755Z,66.00
2018-11-12T03:58:10.367Z,65.90
2018-11-12T04:00:37.924Z,65.90
2018-11-12T04:03:05.506Z,66.00
2018-11-12T04:05:33.106Z,65.70
2018-11-12T04:08:00.769Z,65.20
2018-11-12T04:10:28.326Z,65.00
2018-11-12T04:12:56.014Z,64.50
2018-11-12T04:15:24.747Z,64.20
2018-11-12T04:17:52.424Z,64.20
2018-11-12T04:20:21.305Z,64.20
2018-11-12T04:22:54.533Z,64.30
2018-11-12T04:25:22.226Z,65.30
2018-11-12T04:27:49.925Z,70.90
2018-11-12T04:30:17.475Z,71.70
2018-11-12T04:32:45.883Z,71.10
2018-11-12T04:35:13.513Z,70.10
2018-11-12T04:37:41.199Z,65.10
2018-11-12T04:40:12.846Z,63.20
2018-11-12T04:42:40.805Z,64.20
2018-11-12T04:45:10.179Z,69.60
2018-11-12T04:47:37.847Z,66.70
2018-11-12T04:50:08.015Z,70.40
2018-11-12T04:52:35.582Z,70.50
2018-11-12T04:55:03.434Z,62.70
2018-11-12T04:57:30.993Z,62.50
2018-11-12T04:59:58.598Z,62.80
2018-11-12T05:02:28.951Z,64.60
2018-11-12T05:04:57.051Z,65.90
2018-11-12T05:07:24.657Z,66.70
2018-11-12T05:09:52.222Z,67.40
2018-11-12T05:12:19.814Z,67.90
2018-11-12T05:14:47.529Z,68.00
2018-11-12T05:17:15.204Z,68.40
2018-11-12T05:19:42.757Z,68.70
2018-11-12T05:22:10.380Z,68.80
2018-11-12T05:24:37.935Z,68.90
2018-11-12T05:27:05.554Z,68.60
2018-11-12T05:29:33.215Z,69.90
2018-11-12T05:32:00.774Z,73.20
2018-11-12T05:34:28.327Z,72.00
2018-11-12T05:36:55.957Z,66.00
2018-11-12T05:39:23.502Z,69.30
2018-11-12T05:41:51.108Z,70.00
2018-11-12T05:44:18.705Z,69.50
2018-11-12T05:46:46.326Z,64.50
2018-11-12T05:49:14.113Z,65.00
2018-11-12T05:51:41.820Z,64.80
2018-11-12T05:54:09.505Z,65.00
2018-11-12T05:56:37.069Z,65.90
2018-11-12T05:59:05.004Z,65.60
2018-11-12T06:01:32.694Z,64.70
2018-11-12T06:04:00.385Z,64.40
2018-11-12T06:06:28.148Z,65.00
2018-11-12T06:08:55.730Z,64.30
2018-11-12T06:11:23.387Z,64.70
2018-11-12T06:13:50.953Z,65.00
2018-11-12T06:16:18.659Z,65.20
2018-11-12T06:18:46.252Z,65.90
2018-11-12T06:21:13.837Z,65.00
2018-11-12T06:23:41.498Z,65.10
2018-11-12T06:26:09.089Z,65.50
2018-11-12T06:28:36.781Z,65.30
2018-11-12T06:31:04.774Z,64.00
2018-11-12T06:33:32.413Z,64.30
2018-11-12T06:35:59.979Z,64.40
2018-11-12T06:38:27.527Z,64.10
2018-11-12T06:40:55.198Z,64.00
2018-11-12T06:43:22.809Z,64.30
2018-11-12T06:45:50.496Z,64.40
2018-11-12T06:48:18.034Z,64.40
2018-11-12T06:50:45.670Z,64.80
2018-11-12T06:53:13.259Z,64.60
2018-11-12T06:55:40.838Z,64.50
2018-11-12T06:58:08.449Z,64.50
2018-11-12T07:00:36.113Z,65.70
2018-11-12T07:03:03.778Z,65.00
2018-11-12T07:05:31.923Z,64.70
2018-11-12T07:07:59.507Z,64.00
2018-11-12T07:10:28.065Z,64.10
2018-11-12T07:13:12.621Z,63.30
2018-11-12T07:16:00.227Z,63.50
2018-11-12T07:18:42.788Z,63.60
2018-11-12T07:21:10.366Z,62.70
2018-11-12T07:23:38.058Z,62.30
2018-11-12T07:26:05.659Z,62.00
2018-11-12T07:28:33.334Z,61.70
2018-11-12T07:31:01.068Z,61.20
2018-11-12T07:33:28.660Z,61.00
2018-11-12T07:35:56.363Z,60.90
2018-11-12T07:38:23.986Z,60.70
2018-11-12T07:40:51.619Z,61.10
2018-11-12T07:43:19.195Z,61.30
2018-11-12T07:45:46.797Z,61.50
2018-11-12T07:48:14.354Z,61.10
2018-11-12T07:50:41.882Z,61.20
2018-11-12T07:53:09.472Z,61.20
2018-11-12T07:55:37.028Z,61.20
2018-11-12T07:58:04.807Z,61.00
2018-11-12T08:00:33.583Z,61.00
2018-11-12T08:03:05.621Z,61.00
2018-11-12T08:05:33.395Z,60.70
2018-11-12T08:08:00.970Z,59.80
2018-11-12T08:10:28.525Z,60.20
2018-11-12T08:12:56.074Z,60.30
2018-11-12T08:15:23.791Z,60.20
2018-11-12T08:17:51.383Z,59.80
2018-11-12T08:20:20.448Z,59.50
2018-11-12T08:22:49.061Z,59.90
2018-11-12T08:25:16.905Z,59.90
2018-11-12T08:27:44.944Z,60.00
2018-11-12T08:30:14.809Z,60.20
2018-11-12T08:32:43.347Z,60.00
2018-11-12T08:35:11.565Z,59.30
2018-11-12T08:37:39.106Z,58.10
2018-11-12T08:40:09.519Z,58.70
2018-11-12T08:42:37.018Z,58.80
2018-11-12T08:45:06.012Z,58.00
2018-11-12T08:47:34.015Z,57.50
2018-11-12T08:50:01.625Z,58.20
2018-11-12T08:52:29.159Z,57.40
2018-11-12T08:54:56.866Z,56.80
2018-11-12T08:57:24.470Z,56.70
2018-11-12T08:59:52.098Z,56.10
2018-11-12T09:02:19.713Z,57.30
2018-11-12T09:04:47.307Z,56.80
2018-11-12T09:07:15.226Z,57.20
2018-11-12T09:09:42.562Z,57.10
2018-11-12T09:12:10.134Z,56.40
2018-11-12T09:14:37.878Z,56.00
2018-11-12T09:17:05.497Z,55.00
2018-11-12T09:19:33.262Z,54.30
2018-11-12T09:22:00.895Z,53.50
2018-11-12T09:24:28.686Z,52.10
2018-11-12T09:26:56.255Z,52.80
2018-11-12T09:29:23.916Z,53.00
2018-11-12T09:31:51.471Z,51.60
2018-11-12T09:34:19.298Z,51.10
2018-11-12T09:36:47.097Z,51.70
2018-11-12T09:39:14.631Z,51.20
2018-11-12T09:41:42.253Z,49.40
2018-11-12T09:44:09.851Z,49.30
2018-11-12T09:46:37.460Z,50.10
2018-11-12T09:49:05.481Z,50.10
2018-11-12T09:51:33.124Z,50.30
2018-11-12T09:54:00.778Z,50.50
2018-11-12T09:56:28.362Z,50.30
2018-11-12T09:58:56.246Z,50.60
2018-11-12T10:01:24.382Z,49.00
2018-11-12T10:03:52.396Z,47.30
2018-11-12T10:06:20.539Z,48.40
2018-11-12T10:08:48.887Z,48.40
2018-11-12T10:11:16.961Z,47.60
2018-11-12T10:13:44.980Z,48.60
2018-11-12T10:16:12.761Z,48.30
2018-11-12T10:18:37.068Z,49.10
2018-11-12T10:21:05.057Z,49.00
2018-11-12T10:23:32.643Z,49.20
2018-11-12T10:26:00.179Z,49.30
2018-11-12T10:28:27.795Z,48.40
2018-11-12T10:30:55.326Z,48.10
2018-11-12T10:33:22.962Z,48.70
2018-11-12T10:35:50.512Z,48.90
2018-11-12T10:38:18.069Z,49.00
2018-11-12T10:40:45.728Z,49.70
2018-11-12T10:43:13.274Z,49.40
2018-11-12T10:45:40.852Z,50.10
2018-11-12T10:48:08.522Z,50.40
2018-11-12T10:50:36.148Z,50.30
2018-11-12T10:53:03.962Z,50.20
2018-11-12T10:55:31.708Z,50.60
2018-11-12T10:57:59.229Z,50.40
2018-11-12T11:00:35.338Z,50.60
2018-11-12T11:03:10.876Z,50.50
2018-11-12T11:05:39.519Z,50.50
2018-11-12T11:08:07.178Z,50.70
2018-11-12T11:10:34.689Z,50.40
2018-11-12T11:13:03.171Z,50.60
2018-11-12T11:15:31.453Z,50.90
2018-11-12T11:17:58.958Z,50.50
2018-11-12T11:20:26.684Z,50.70
2018-11-12T11:22:54.286Z,50.50
2018-11-12T11:25:21.858Z,50.90
2018-11-12T11:27:49.467Z,51.00
2018-11-12T11:30:17.403Z,50.90
2018-11-12T11:32:45.074Z,51.10
2018-11-12T11:35:13.807Z,51.20
2018-11-12T11:37:41.391Z,51.30
2018-11-12T11:40:12.537Z,51.10
2018-11-12T11:42:40.432Z,51.20
2018-11-12T11:45:08.909Z,51.20
2018-11-12T11:47:36.882Z,51.50
2018-11-12T11:50:05.032Z,50.90
2018-11-12T11:52:32.598Z,51.00
2018-11-12T11:55:00.171Z,51.00
2018-11-12T11:57:27.808Z,50.80
2018-11-12T11:59:55.325Z,51.00
2018-11-12T12:02:22.948Z,51.10
2018-11-12T12:04:50.521Z,51.10
2018-11-12T12:07:18.105Z,51.20
2018-11-12T12:09:45.758Z,51.40
2018-11-12T12:12:13.318Z,51.40
2018-11-12T12:14:40.935Z,51.40
2018-11-12T12:17:08.489Z,51.30
2018-11-12T12:19:36.052Z,51.30
2018-11-12T12:22:03.663Z,51.50
2018-11-12T12:24:31.317Z,49.80
2018-11-12T12:26:58.758Z,48.70
2018-11-12T12:29:26.384Z,48.30
2018-11-12T12:31:54.003Z,48.90
2018-11-12T12:34:21.577Z,49.70
2018-11-12T12:36:49.339Z,50.00
2018-11-12T12:39:16.798Z,50.70
2018-11-12T12:41:44.390Z,51.00
2018-11-12T12:44:12.015Z,51.50
2018-11-12T12:46:39.627Z,51.40
2018-11-12T12:49:07.219Z,51.50
2018-11-12T12:51:34.868Z,51.80
2018-11-12T12:54:02.502Z,52.40
2018-11-12T12:56:30.238Z,51.80
2018-11-12T12:58:57.783Z,51.60
2018-11-12T13:01:25.426Z,51.60
2018-11-12T13:03:52.960Z,51.70
2018-11-12T13:06:20.633Z,51.50
2018-11-12T13:08:48.229Z,51.40
2018-11-12T13:11:15.805Z,51.20
2018-11-12T13:13:43.410Z,51.20
2018-11-12T13:16:10.990Z,51.30
2018-11-12T13:18:38.546Z,51.00
2018-11-12T13:21:06.172Z,50.90
2018-11-12T13:23:33.742Z,50.70
2018-11-12T13:26:01.329Z,50.70
2018-11-12T13:28:28.952Z,50.40
2018-11-12T13:30:56.544Z,50.00
2018-11-12T13:33:24.153Z,50.20
2018-11-12T13:35:51.800Z,49.90
2018-11-12T13:38:19.362Z,49.70
2018-11-12T13:40:46.942Z,49.50
2018-11-12T13:43:14.562Z,49.60
2018-11-12T13:45:42.144Z,49.40
2018-11-12T13:48:09.759Z,49.80
2018-11-12T13:50:37.418Z,49.90
2018-11-12T13:53:05.202Z,50.40
2018-11-12T13:55:32.694Z,50.40
2018-11-12T13:58:00.303Z,50.60
2018-11-12T14:00:28.867Z,50.80
2018-11-12T14:02:56.821Z,51.20
2018-11-12T14:05:25.156Z,51.20
2018-11-12T14:07:52.795Z,51.30
2018-11-12T14:10:22.586Z,51.20
2018-11-12T14:12:51.067Z,51.10
2018-11-12T14:15:19.925Z,51.20
2018-11-12T14:17:48.046Z,51.20
2018-11-12T14:20:15.697Z,51.40
2018-11-12T14:22:43.219Z,51.30
2018-11-12T14:25:12.146Z,51.50
2018-11-12T14:27:39.745Z,51.60
2018-11-12T14:30:08.993Z,51.60
2018-11-12T14:32:36.550Z,51.50
2018-11-12T14:35:05.789Z,51.20
2018-11-12T14:37:33.367Z,51.30
2018-11-12T14:40:00.912Z,51.50
2018-11-12T14:42:28.462Z,51.80
2018-11-12T14:44:56.053Z,51.90
2018-11-12T14:47:23.594Z,52.10
2018-11-12T14:49:51.164Z,52.20
2018-11-12T14:52:18.795Z,52.40
2018-11-12T14:54:46.357Z,52.60
2018-11-12T14:57:13.925Z,52.70
2018-11-12T14:59:41.524Z,52.90
2018-11-12T15:02:09.167Z,53.20
2018-11-12T15:04:36.791Z,53.40
2018-11-12T15:07:05.422Z,53.70
2018-11-12T15:09:32.986Z,53.80
2018-11-12T15:12:00.566Z,53.90
2018-11-12T15:14:28.147Z,54.40
2018-11-12T15:16:55.710Z,54.40
2018-11-12T15:19:23.307Z,54.60
2018-11-12T15:21:50.902Z,55.00
2018-11-12T15:24:18.495Z,55.90
2018-11-12T15:26:46.049Z,55.80
2018-11-12T15:29:13.709Z,56.40
2018-11-12T15:31:41.255Z,56.00
2018-11-12T15:34:08.858Z,56.00
2018-11-12T15:36:36.466Z,56.00
2018-11-12T15:39:06.694Z,56.10
2018-11-12T15:41:34.324Z,55.90
2018-11-12T15:44:01.993Z,55.70
2018-11-12T15:46:29.559Z,55.70
2018-11-12T15:48:57.177Z,55.50
2018-11-12T15:51:24.766Z,55.40
2018-11-12T15:53:52.363Z,55.30
2018-11-12T15:56:19.950Z,55.20
2018-11-12T15:58:47.510Z,55.40
2018-11-12T16:01:15.141Z,55.90
2018-11-12T16:03:42.727Z,56.50
2018-11-12T16:06:10.326Z,57.10
2018-11-12T16:08:37.927Z,57.00
2018-11-12T16:11:05.587Z,56.90
2018-11-12T16:13:33.186Z,57.00
2018-11-12T16:16:00.830Z,57.10
2018-11-12T16:18:28.398Z,57.10
2018-11-12T16:20:56.090Z,57.20
2018-11-12T16:23:23.705Z,57.10
2018-11-12T16:25:51.258Z,57.10
2018-11-12T16:28:18.853Z,57.20
2018-11-12T16:30:46.781Z,57.10
2018-11-12T16:33:14.377Z,57.20
2018-11-12T16:35:41.953Z,57.40
2018-11-12T16:38:09.541Z,57.40
2018-11-12T16:40:37.122Z,57.50
2018-11-12T16:43:04.734Z,57.70
2018-11-12T16:45:32.290Z,57.70
2018-11-12T16:47:59.874Z,57.90
2018-11-12T16:50:27.455Z,58.10
2018-11-12T16:52:55.054Z,58.30
2018-11-12T16:55:23.149Z,58.50
2018-11-12T16:57:50.847Z,58.70
2018-11-12T17:00:19.772Z,58.70
2018-11-12T17:02:47.637Z,58.90
2018-11-12T17:05:17.421Z,59.10
2018-11-12T17:07:45.017Z,59.20
2018-11-12T17:10:14.156Z,59.30
2018-11-12T17:12:42.398Z,59.50
2018-11-12T17:15:10.660Z,59.60
2018-11-12T17:17:38.378Z,59.70
2018-11-12T17:20:06.373Z,59.80
2018-11-12T17:22:34.093Z,60.00
2018-11-12T17:25:03.143Z,60.00
2018-11-12T17:27:30.748Z,59.90
2018-11-12T17:29:58.371Z,59.70
2018-11-12T17:32:25.989Z,59.70
2018-11-12T17:34:53.676Z,59.60
2018-11-12T17:37:21.258Z,59.60
2018-11-12T17:39:48.834Z,59.50
2018-11-12T17:42:16.397Z,59.60
2018-11-12T17:44:43.979Z,59.60
2018-11-12T17:47:11.612Z,59.60
2018-11-12T17:49:39.170Z,59.60
2018-11-12T17:52:06.793Z,59.60
2018-11-12T17:54:34.443Z,59.50
2018-11-12T17:57:02.069Z,59.50
2018-11-12T17:59:29.742Z,59.40
2018-11-12T18:01:57.366Z,59.30
2018-11-12T18:04:24.965Z,59.20
2018-11-12T18:06:52.657Z,59.10
2018-11-12T18:09:20.271Z,59.20
2018-11-12T18:11:47.865Z,59.10
2018-11-12T18:14:15.487Z,59.10
2018-11-12T18:16:43.095Z,59.10
2018-11-12T18:19:10.696Z,59.00
2018-11-12T18:21:38.315Z,59.00
2018-11-12T18:24:06.256Z,59.00
2018-11-12T18:26:33.863Z,59.10
2018-11-12T18:29:01.487Z,59.20
2018-11-12T18:31:29.412Z,59.30
2018-11-12T18:33:56.886Z,59.30
2018-11-12T18:36:24.458Z,59.40
2018-11-12T18:38:52.075Z,59.60
2018-11-12T18:41:19.714Z,59.70
2018-11-12T18:43:47.344Z,59.70
2018-11-12T18:46:14.916Z,60.00
2018-11-12T18:48:42.576Z,60.00
2018-11-12T18:51:10.174Z,60.00
2018-11-12T18:53:37.799Z,60.10
2018-11-12T18:56:05.671Z,60.10
2018-11-12T18:58:33.370Z,60.20
2018-11-12T19:01:01.005Z,60.30
2018-11-12T19:03:28.642Z,60.40
2018-11-12T19:05:56.287Z,60.40
2018-11-12T19:08:23.867Z,60.50
2018-11-12T19:10:51.583Z,60.60
2018-11-12T19:13:19.107Z,60.50
2018-11-12T19:15:47.967Z,60.50
2018-11-12T19:18:15.511Z,60.70
2018-11-12T19:20:43.183Z,60.90
2018-11-12T19:23:10.777Z,60.90
2018-11-12T19:25:38.393Z,60.90
2018-11-12T19:28:06.069Z,61.00
2018-11-12T19:30:33.716Z,61.00
2018-11-12T19:33:01.372Z,60.80
2018-11-12T19:35:30.263Z,60.80
2018-11-12T19:37:57.952Z,60.90
2018-11-12T19:40:26.835Z,60.90
2018-11-12T19:42:55.074Z,61.00
2018-11-12T19:45:22.758Z,61.10
2018-11-12T19:47:50.873Z,61.10
2018-11-12T19:50:19.815Z,61.10
2018-11-12T19:52:48.649Z,61.00
2018-11-12T19:55:16.370Z,61.20
2018-11-12T19:57:44.542Z,61.10
2018-11-12T20:00:14.550Z,61.00
2018-11-12T20:02:43.258Z,61.00
2018-11-12T20:05:10.914Z,61.10
2018-11-12T20:07:40.011Z,61.20
2018-11-12T20:10:09.839Z,61.30
2018-11-12T20:12:37.470Z,61.20
2018-11-12T20:15:05.575Z,61.10
2018-11-12T20:17:33.198Z,61.10
2018-11-12T20:20:00.798Z,61.10
2018-11-12T20:22:28.503Z,61.10
2018-11-12T20:24:56.511Z,61.20
2018-11-12T20:27:24.165Z,61.20
2018-11-12T20:29:51.875Z,61.40
2018-11-12T20:32:19.526Z,61.20
2018-11-12T20:34:47.174Z,61.20
2018-11-12T20:37:14.814Z,61.20
2018-11-12T20:39:42.782Z,61.50
2018-11-12T20:42:10.382Z,61.40
2018-11-12T20:44:38.205Z,61.50
2018-11-12T20:47:05.803Z,61.20
2018-11-12T20:49:33.435Z,61.20
2018-11-12T20:52:01.105Z,61.10
2018-11-12T20:54:29.097Z,60.90
2018-11-12T20:56:57.471Z,60.90
2018-11-12T20:59:25.101Z,60.80
2018-11-12T21:01:52.798Z,60.70
2018-11-12T21:04:20.452Z,60.70
2018-11-12T21:06:48.275Z,60.80
2018-11-12T21:09:15.856Z,60.90
2018-11-12T21:11:43.461Z,61.10
2018-11-12T21:14:11.112Z,61.20
2018-11-12T21:16:39.051Z,61.30
2018-11-12T21:19:07.415Z,61.30
2018-11-12T21:21:35.042Z,61.20
2018-11-12T21:24:02.630Z,61.20
2018-11-12T21:26:30.946Z,61.20
2018-11-12T21:28:58.696Z,61.20
2018-11-12T21:31:26.397Z,61.20
2018-11-12T21:33:54.245Z,61.40
2018-11-12T21:36:21.912Z,61.40
2018-11-12T21:38:49.514Z,61.40
2018-11-12T21:41:17.141Z,61.40
2018-11-12T21:43:44.879Z,61.50
2018-11-12T21:46:12.456Z,61.40
2018-11-12T21:48:40.074Z,61.50
2018-11-12T21:51:07.675Z,61.60
2018-11-12T21:53:35.304Z,61.60
2018-11-12T21:56:02.975Z,62.30
2018-11-12T21:58:30.592Z,61.70
2018-11-12T22:00:58.146Z,61.60
2018-11-12T22:03:25.770Z,61.90
2018-11-12T22:05:53.345Z,61.80
2018-11-12T22:08:21.074Z,61.60
2018-11-12T22:10:48.644Z,61.60
2018-11-12T22:13:16.219Z,61.50
2018-11-12T22:15:43.866Z,61.60
2018-11-12T22:18:11.514Z,61.60
2018-11-12T22:20:39.103Z,61.90
2018-11-12T22:23:06.770Z,62.00
2018-11-12T22:25:34.393Z,62.10
2018-11-12T22:28:02.055Z,62.00
2018-11-12T22:30:29.716Z,61.80
2018-11-12T22:32:57.330Z,61.70
2018-11-12T22:35:24.956Z,61.80
2018-11-12T22:37:52.566Z,62.00
2018-11-12T22:40:20.690Z,62.10
2018-11-12T22:42:49.148Z,61.90
2018-11-12T22:45:18.026Z,62.00
2018-11-12T22:47:46.152Z,62.00
2018-11-12T22:50:13.894Z,62.00
2018-11-12T22:52:42.190Z,62.10
2018-11-12T22:55:10.938Z,62.10
2018-11-12T22:57:38.598Z,62.20
2018-11-12T23:00:28.265Z,62.30
2018-11-12T23:02:56.482Z,62.30
2018-11-12T23:05:24.282Z,62.30
2018-11-12T23:07:52.538Z,62.50
2018-11-12T23:10:20.458Z,62.60
2018-11-12T23:12:48.090Z,62.70
2018-11-12T23:15:16.077Z,62.60
2018-11-12T23:17:43.702Z,62.60
2018-11-12T23:20:16.431Z,62.60
2018-11-12T23:22:44.826Z,62.50
2018-11-12T23:25:12.535Z,62.50
2018-11-12T23:27:40.814Z,62.60
2018-11-12T23:30:10.895Z,62.70
2018-11-12T23:32:38.527Z,62.60
2018-11-12T23:35:07.182Z,62.60
2018-11-12T23:37:34.757Z,62.60
2018-11-12T23:40:02.569Z,63.20
2018-11-12T23:42:30.214Z,62.80
2018-11-12T23:44:57.790Z,62.50
2018-11-12T23:47:25.444Z,62.20
2018-11-12T23:49:53.025Z,62.30
2018-11-12T23:52:20.610Z,62.20
2018-11-12T23:54:48.265Z,62.10
2018-11-12T23:57:15.874Z,61.90
2018-11-12T23:59:43.430Z,61.80
